TimeEDT,TemperatureF,Dew PointF,Humidity,Sea Level PressureIn,VisibilityMPH,Wind Direction,Wind SpeedMPH,Gust SpeedMPH,PrecipitationIn,Events,Conditions,WindDirDegrees,DateUTC
12:51 AM,55.0,50.0,83,29.89,-9999.0,NNE,16.1,-,N/A,,Unknown,30,2012-10-02 04:51:00
1:51 AM,54.0,48.0,80,29.89,-9999.0,NNE,13.8,-,N/A,,Unknown,30,2012-10-02 05:51:00
2:51 AM,53.1,48.0,83,29.90,-9999.0,NNE,15.0,-,N/A,,Unknown,30,2012-10-02 06:51:00
3:51 AM,53.1,48.9,86,29.91,-9999.0,NE,10.4,-,N/A,,Unknown,40,2012-10-02 07:51:00
4:51 AM,53.1,48.9,86,29.91,-9999.0,NE,15.0,-,N/A,,Unknown,50,2012-10-02 08:51:00
5:51 AM,53.1,48.0,83,29.93,-9999.0,NE,9.2,-,N/A,,Unknown,50,2012-10-02 09:51:00
6:51 AM,53.1,46.9,80,29.94,-9999.0,NE,9.2,-,N/A,,Unknown,50,2012-10-02 10:51:00
7:51 AM,52.0,46.9,83,29.95,-9999.0,NE,9.2,-,N/A,,Unknown,50,2012-10-02 11:51:00
8:51 AM,52.0,46.9,83,29.95,-9999.0,ENE,8.1,-,N/A,,Unknown,60,2012-10-02 12:51:00
9:51 AM,53.1,45.0,74,29.97,-9999.0,ENE,6.9,-,N/A,,Unknown,60,2012-10-02 13:51:00
10:51 AM,53.1,44.1,71,29.98,-9999.0,NE,8.1,-,N/A,,Unknown,50,2012-10-02 14:51:00
11:51 AM,53.1,43.0,69,29.99,-9999.0,Calm,Calm,-,N/A,,Unknown,0,2012-10-02 15:51:00
12:51 PM,52.0,45.0,77,29.99,-9999.0,East,8.1,-,N/A,,Unknown,80,2012-10-02 16:51:00
1:51 PM,53.1,44.1,71,29.98,-9999.0,East,5.8,-,N/A,,Unknown,90,2012-10-02 17:51:00
2:51 PM,55.0,45.0,69,29.95,-9999.0,East,4.6,-,N/A,,Unknown,80,2012-10-02 18:51:00
3:51 PM,54.0,46.0,75,29.95,-9999.0,ESE,5.8,-,N/A,,Unknown,110,2012-10-02 19:51:00
4:51 PM,55.0,44.1,67,29.93,-9999.0,South,3.5,-,N/A,,Unknown,180,2012-10-02 20:51:00
5:51 PM,54.0,45.0,72,29.92,-9999.0,SSW,5.8,-,N/A,,Unknown,200,2012-10-02 21:51:00
6:51 PM,53.1,46.9,80,29.93,-9999.0,Variable,3.5,-,N/A,,Unknown,0,2012-10-02 22:51:00
7:51 PM,50.0,46.9,89,29.94,-9999.0,Calm,Calm,-,N/A,,Unknown,0,2012-10-02 23:51:00
8:51 PM,48.0,46.0,93,29.95,-9999.0,SW,3.5,-,N/A,,Unknown,220,2012-10-03 00:51:00
9:51 PM,50.0,48.0,93,29.93,-9999.0,SW,8.1,-,N/A,,Unknown,220,2012-10-03 01:51:00
10:51 PM,53.1,48.9,86,29.92,-9999.0,SW,10.4,17.3,N/A,,Unknown,220,2012-10-03 02:51:00
11:51 PM,54.0,50.0,86,29.91,-9999.0,SW,12.7,19.6,N/A,,Unknown,220,2012-10-03 03:51:00